Time;durP1;ratioP1;P1;durP2;ratioP2;P2;SDS_P1;SDS_P2;PMS_P1;PMS_P2;Temp;Humidity;BMP_temperature;BMP_pressure;BME280_temperature;BME280_humidity;BME280_pressure;Samples;Min_cycle;Max_cycle;Signal;HPM_P1;HPM_P2
2024/02/06 00:00:44;;;;;;;2.05;1.40;;;18.10;57.50;;;;;;5066197;28;20649;-70
2024/02/06 00:03:10;;;;;;;1.80;1.38;;;18.00;57.40;;;;;;5052546;28;20229;-71
2024/02/06 00:05:35;;;;;;;1.58;1.20;;;18.10;57.40;;;;;;5051603;28;20202;-70
2024/02/06 00:08:01;;;;;;;2.28;1.35;;;18.00;57.40;;;;;;5052482;28;20800;-71
2024/02/06 00:10:26;;;;;;;1.92;1.27;;;18.00;57.40;;;;;;5052077;28;20179;-71
2024/02/06 00:12:52;;;;;;;2.38;1.40;;;18.00;57.30;;;;;;5051554;28;20218;-71
2024/02/06 00:15:17;;;;;;;1.55;1.38;;;18.00;57.30;;;;;;5052230;28;20171;-70
2024/02/06 00:17:43;;;;;;;2.75;1.52;;;18.00;57.30;;;;;;5052469;28;20172;-70
2024/02/06 00:20:08;;;;;;;1.95;1.15;;;18.00;57.40;;;;;;5051721;28;20171;-70
2024/02/06 00:22:34;;;;;;;2.78;1.50;;;17.90;57.20;;;;;;5052006;28;20175;-71
2024/02/06 00:25:00;;;;;;;2.58;1.48;;;17.90;57.20;;;;;;5052159;28;20698;-72
2024/02/06 00:27:25;;;;;;;2.08;1.30;;;17.90;57.30;;;;;;5051131;28;20178;-70
2024/02/06 00:29:55;;;;;;;2.10;1.40;;;17.90;57.20;;;;;;5052302;28;20262;-69
2024/02/06 00:32:21;;;;;;;2.58;1.52;;;17.90;57.30;;;;;;5051901;28;20218;-69
2024/02/06 00:34:47;;;;;;;2.67;1.50;;;17.90;57.30;;;;;;5051484;28;20205;-70
2024/02/06 00:37:13;;;;;;;2.03;1.58;;;17.90;57.30;;;;;;5052104;28;20179;-70
2024/02/06 00:39:39;;;;;;;2.47;1.60;;;17.90;57.30;;;;;;5051702;28;20543;-70
2024/02/06 00:42:04;;;;;;;2.25;1.60;;;17.90;57.40;;;;;;5051544;28;20175;-70
2024/02/06 00:44:30;;;;;;;2.25;1.50;;;17.80;57.90;;;;;;5051652;28;20171;-69
2024/02/06 00:46:55;;;;;;;2.05;1.60;;;17.80;57.30;;;;;;5051771;28;20309;-70
2024/02/06 00:49:21;;;;;;;3.08;1.50;;;17.80;57.30;;;;;;5050853;28;20181;-69
2024/02/06 00:51:46;;;;;;;1.90;1.50;;;17.80;57.30;;;;;;5051830;28;20175;-69
2024/02/06 00:54:12;;;;;;;2.78;1.42;;;17.80;57.30;;;;;;5051565;28;20218;-70
2024/02/06 00:56:39;;;;;;;3.20;1.90;;;17.80;57.30;;;;;;5051070;28;20175;-70
2024/02/06 00:59:05;;;;;;;4.07;1.90;;;17.80;57.30;;;;;;5056224;28;20183;-71
2024/02/06 01:01:30;;;;;;;1.50;1.40;;;17.80;57.40;;;;;;5055148;28;20174;-70
2024/02/06 01:03:56;;;;;;;1.95;1.63;;;17.80;57.40;;;;;;5055973;28;20171;-70
2024/02/06 01:06:21;;;;;;;1.67;1.58;;;17.70;57.40;;;;;;5055618;28;20549;-71
2024/02/06 01:08:48;;;;;;;2.08;1.60;;;17.70;57.40;;;;;;5055044;28;20171;-71
2024/02/06 01:11:13;;;;;;;2.13;1.70;;;17.70;57.40;;;;;;5055780;28;20213;-70
2024/02/06 01:13:39;;;;;;;2.03;1.60;;;17.70;57.40;;;;;;5055337;28;20220;-70
2024/02/06 01:16:04;;;;;;;2.65;1.48;;;17.70;57.50;;;;;;5055168;28;20183;-71
2024/02/06 01:18:30;;;;;;;2.45;1.75;;;17.70;57.40;;;;;;5055559;28;20183;-71
2024/02/06 01:20:55;;;;;;;1.98;1.77;;;17.70;57.50;;;;;;5055669;28;20205;-72
2024/02/06 01:23:21;;;;;;;1.98;1.70;;;17.70;57.50;;;;;;5054973;28;20632;-70
2024/02/06 01:25:46;;;;;;;3.83;2.05;;;17.70;57.50;;;;;;5055503;28;20163;-71
2024/02/06 01:28:12;;;;;;;2.53;2.00;;;17.70;57.50;;;;;;5055350;28;20317;-70
2024/02/06 01:30:38;;;;;;;4.00;1.98;;;17.70;57.50;;;;;;5054612;28;20220;-70
2024/02/06 01:33:03;;;;;;;2.17;1.80;;;17.70;57.50;;;;;;5055362;28;20577;-70
2024/02/06 01:35:29;;;;;;;2.00;1.60;;;17.70;57.50;;;;;;5055074;28;20201;-69
2024/02/06 01:37:55;;;;;;;2.53;1.80;;;17.60;57.50;;;;;;5054611;28;20198;-70
2024/02/06 01:40:20;;;;;;;2.55;1.70;;;17.60;57.40;;;;;;5055501;28;20182;-71
2024/02/06 01:42:47;;;;;;;2.03;1.63;;;17.70;57.50;;;;;;5055309;28;20179;-70
2024/02/06 01:45:13;;;;;;;2.08;1.48;;;17.60;57.50;;;;;;5054448;28;20985;-69
2024/02/06 01:47:38;;;;;;;2.22;1.70;;;17.60;57.50;;;;;;5054843;28;20206;-69
2024/02/06 01:50:04;;;;;;;3.67;2.30;;;17.60;57.50;;;;;;5055128;28;20545;-69
2024/02/06 01:52:30;;;;;;;2.13;1.70;;;17.60;57.40;;;;;;5052581;28;20277;-70
2024/02/06 01:54:55;;;;;;;3.05;2.05;;;17.60;57.50;;;;;;5053675;28;20623;-71
2024/02/06 01:57:21;;;;;;;3.13;1.70;;;17.60;57.50;;;;;;5053222;28;20219;-70
2024/02/06 01:59:47;;;;;;;2.35;1.65;;;17.60;57.50;;;;;;5053087;28;20179;-70
2024/02/06 02:02:12;;;;;;;3.95;2.63;;;17.60;57.60;;;;;;5053749;28;20176;-71
2024/02/06 02:04:38;;;;;;;4.03;1.73;;;17.60;57.50;;;;;;5054563;28;20622;-71
2024/02/06 02:07:03;;;;;;;2.85;1.80;;;17.60;57.50;;;;;;5053924;28;20720;-72
2024/02/06 02:09:29;;;;;;;2.88;2.15;;;17.60;57.50;;;;;;5052307;28;20266;-70
2024/02/06 02:11:55;;;;;;;2.50;1.65;;;17.50;57.50;;;;;;5053905;28;20171;-70
2024/02/06 02:14:20;;;;;;;2.80;1.80;;;17.50;57.50;;;;;;5054371;28;20219;-70
2024/02/06 02:16:46;;;;;;;3.03;1.80;;;17.50;57.50;;;;;;5054883;28;20171;-71
2024/02/06 02:19:12;;;;;;;2.05;1.85;;;17.50;57.50;;;;;;5053778;28;20822;-71
2024/02/06 02:21:41;;;;;;;2.60;1.80;;;17.50;57.50;;;;;;5054217;28;20179;-71
2024/02/06 02:24:07;;;;;;;2.95;2.08;;;17.50;57.50;;;;;;5054488;28;20175;-72
2024/02/06 02:26:34;;;;;;;3.35;2.17;;;17.50;57.50;;;;;;5053541;28;20183;-71
2024/02/06 02:29:00;;;;;;;3.13;2.00;;;17.50;57.60;;;;;;5053323;28;20175;-71
2024/02/06 02:31:25;;;;;;;2.85;1.83;;;17.50;57.60;;;;;;5052865;28;20608;-70
2024/02/06 02:33:51;;;;;;;2.97;2.10;;;17.50;57.50;;;;;;5052289;28;20733;-69
2024/02/06 02:36:17;;;;;;;3.42;2.28;;;17.50;57.50;;;;;;5052732;28;20175;-70
2024/02/06 02:38:43;;;;;;;4.22;1.80;;;17.40;57.50;;;;;;5054327;28;20272;-71
2024/02/06 02:41:09;;;;;;;8.45;2.75;;;17.40;57.50;;;;;;5053371;28;20184;-71
2024/02/06 02:43:34;;;;;;;2.70;1.70;;;17.50;57.60;;;;;;5053925;28;20183;-69
2024/02/06 02:46:00;;;;;;;3.35;1.80;;;17.40;57.50;;;;;;5054071;28;20597;-69
2024/02/06 02:48:26;;;;;;;2.20;1.95;;;17.40;57.50;;;;;;5053060;28;20254;-69
2024/02/06 02:50:51;;;;;;;2.92;2.28;;;17.40;57.50;;;;;;5053866;28;20249;-70
2024/02/06 02:53:17;;;;;;;3.30;2.13;;;17.40;57.50;;;;;;5053560;28;20762;-70
2024/02/06 02:55:42;;;;;;;2.63;1.70;;;17.40;57.50;;;;;;5053309;28;20175;-71
2024/02/06 02:58:08;;;;;;;2.25;1.80;;;17.40;57.50;;;;;;5053642;28;20231;-72
2024/02/06 03:00:36;;;;;;;2.65;2.00;;;17.40;57.50;;;;;;5053510;28;20178;-71
2024/02/06 03:03:01;;;;;;;2.55;2.22;;;17.40;57.50;;;;;;5053082;28;20194;-72
2024/02/06 03:05:27;;;;;;;4.35;2.17;;;17.40;57.50;;;;;;5053313;28;20262;-70
2024/02/06 03:07:52;;;;;;;3.80;1.70;;;17.40;58.10;;;;;;5053600;28;20259;-72
2024/02/06 03:10:18;;;;;;;3.92;1.90;;;17.40;57.50;;;;;;5052783;28;20266;-71
2024/02/06 03:12:44;;;;;;;2.33;1.90;;;17.40;57.50;;;;;;5053621;28;20246;-71
2024/02/06 03:15:10;;;;;;;4.05;2.13;;;17.40;57.50;;;;;;5052947;28;20175;-71
2024/02/06 03:17:35;;;;;;;5.35;2.10;;;17.40;57.50;;;;;;5053151;28;20178;-70
2024/02/06 03:20:04;;;;;;;2.78;1.67;;;17.40;57.50;;;;;;5052846;28;20210;-70
2024/02/06 03:22:30;;;;;;;2.03;1.58;;;17.30;57.50;;;;;;5052438;28;20172;-71
2024/02/06 03:24:56;;;;;;;2.67;1.98;;;17.40;57.50;;;;;;5053593;28;20185;-71
2024/02/06 03:27:21;;;;;;;2.88;1.90;;;17.30;57.50;;;;;;5053136;28;20578;-70
2024/02/06 03:29:47;;;;;;;3.13;2.10;;;17.40;57.60;;;;;;5052739;28;20700;-69
2024/02/06 03:32:12;;;;;;;1.80;1.70;;;17.30;57.50;;;;;;5053246;28;20167;-70
2024/02/06 03:34:38;;;;;;;2.53;1.90;;;17.40;57.60;;;;;;5052805;28;20179;-69
2024/02/06 03:37:04;;;;;;;3.45;2.17;;;17.30;57.50;;;;;;5052720;28;20503;-71
2024/02/06 03:39:29;;;;;;;3.10;1.83;;;17.30;57.50;;;;;;5052995;28;20175;-70
2024/02/06 03:41:54;;;;;;;3.20;1.80;;;17.30;57.50;;;;;;5053162;28;20186;-70
2024/02/06 03:44:21;;;;;;;5.00;2.17;;;17.30;57.50;;;;;;5052141;28;20557;-70
2024/02/06 03:46:47;;;;;;;2.53;2.00;;;17.30;57.50;;;;;;5052950;28;20650;-70
2024/02/06 03:49:12;;;;;;;2.20;1.83;;;17.30;57.60;;;;;;5052706;28;20217;-69
2024/02/06 03:51:38;;;;;;;2.83;2.08;;;17.30;57.50;;;;;;5051849;28;20257;-70
2024/02/06 03:54:03;;;;;;;3.00;2.10;;;17.30;57.60;;;;;;5052953;28;20233;-71
2024/02/06 03:56:29;;;;;;;5.50;2.60;;;17.30;57.60;;;;;;5052333;28;20569;-70
2024/02/06 03:58:54;;;;;;;4.32;2.00;;;17.30;57.60;;;;;;5052198;28;20556;-72
2024/02/06 04:01:20;;;;;;;2.15;1.67;;;17.30;57.60;;;;;;5052385;28;20581;-71
2024/02/06 04:03:45;;;;;;;5.60;2.47;;;17.30;57.60;;;;;;5052719;28;20182;-71
2024/02/06 04:06:14;;;;;;;3.47;1.80;;;17.30;57.60;;;;;;5051899;28;20171;-71
2024/02/06 04:08:41;;;;;;;2.42;2.00;;;17.30;57.70;;;;;;5052229;28;20177;-72
2024/02/06 04:11:07;;;;;;;3.78;1.88;;;17.30;57.70;;;;;;5052531;28;20220;-72
2024/02/06 04:13:32;;;;;;;2.63;2.03;;;17.20;57.60;;;;;;5051297;28;20210;-70
2024/02/06 04:15:58;;;;;;;2.22;1.95;;;17.30;57.70;;;;;;5052359;28;20180;-70
2024/02/06 04:18:24;;;;;;;2.10;1.55;;;17.20;57.60;;;;;;5051717;28;20210;-71
2024/02/06 04:20:49;;;;;;;4.95;2.05;;;17.20;57.70;;;;;;5052119;28;20178;-72
2024/02/06 04:23:15;;;;;;;3.75;2.00;;;17.20;57.70;;;;;;5052463;28;20541;-72
2024/02/06 04:25:42;;;;;;;4.38;1.88;;;17.20;57.70;;;;;;5051623;28;20179;-71
2024/02/06 04:28:07;;;;;;;3.13;2.05;;;17.20;57.70;;;;;;5052228;28;20190;-71
2024/02/06 04:30:33;;;;;;;4.07;1.95;;;17.20;57.70;;;;;;5051808;28;20167;-70
2024/02/06 04:32:58;;;;;;;2.15;1.95;;;17.20;57.70;;;;;;5051027;28;20222;-70
2024/02/06 04:35:24;;;;;;;4.55;2.05;;;17.20;57.70;;;;;;5052062;28;20175;-69
2024/02/06 04:37:49;;;;;;;3.63;1.98;;;17.20;57.70;;;;;;5052181;28;20175;-70
2024/02/06 04:40:15;;;;;;;4.05;2.65;;;17.20;57.70;;;;;;5051444;28;20177;-71
2024/02/06 04:42:41;;;;;;;2.22;2.00;;;17.20;57.70;;;;;;5051867;28;20178;-70
2024/02/06 04:45:07;;;;;;;3.08;2.30;;;17.20;57.70;;;;;;5052071;28;20308;-71
2024/02/06 04:47:32;;;;;;;3.03;1.88;;;17.20;57.70;;;;;;5050889;28;20266;-69
2024/02/06 04:49:58;;;;;;;4.72;2.40;;;17.20;57.70;;;;;;5051873;28;20634;-69
2024/02/06 04:52:24;;;;;;;4.05;2.40;;;17.20;57.70;;;;;;5051825;28;20712;-70
2024/02/06 04:54:50;;;;;;;3.35;1.98;;;17.20;57.70;;;;;;5051264;28;20206;-71
2024/02/06 04:57:15;;;;;;;3.35;2.25;;;17.20;57.70;;;;;;5051613;28;20390;-71
2024/02/06 04:59:42;;;;;;;3.83;2.10;;;17.20;57.70;;;;;;5051618;28;20686;-70
2024/02/06 05:02:10;;;;;;;3.40;2.03;;;17.20;57.80;;;;;;5051090;28;20254;-71
2024/02/06 05:04:36;;;;;;;3.03;2.00;;;17.10;57.70;;;;;;5051520;28;20641;-70
2024/02/06 05:07:02;;;;;;;2.85;2.00;;;17.10;57.70;;;;;;5051723;28;20178;-72
2024/02/06 05:09:27;;;;;;;4.60;2.10;;;17.10;57.80;;;;;;5050718;28;20210;-70
2024/02/06 05:11:53;;;;;;;6.22;2.20;;;17.10;57.80;;;;;;5051716;28;20175;-71
2024/02/06 05:14:19;;;;;;;2.78;2.03;;;17.10;57.80;;;;;;5051136;28;20206;-70
2024/02/06 05:16:45;;;;;;;2.67;2.00;;;17.10;57.80;;;;;;5051062;28;20254;-71
2024/02/06 05:19:13;;;;;;;4.40;2.47;;;17.10;57.80;;;;;;5051612;28;20650;-71
2024/02/06 05:21:42;;;;;;;3.10;1.95;;;17.10;57.80;;;;;;5051524;28;20209;-70
2024/02/06 05:24:10;;;;;;;2.58;2.00;;;17.10;57.80;;;;;;5051313;28;20185;-71
2024/02/06 05:26:36;;;;;;;3.15;1.90;;;17.10;57.90;;;;;;5051376;28;20175;-71
2024/02/06 05:29:01;;;;;;;3.42;1.90;;;17.10;57.90;;;;;;5050937;28;20197;-71
2024/02/06 05:31:27;;;;;;;4.00;2.00;;;17.10;57.90;;;;;;5051079;28;20182;-69
2024/02/06 05:33:52;;;;;;;3.05;1.92;;;17.10;57.90;;;;;;5051670;28;20210;-69
2024/02/06 05:36:18;;;;;;;2.83;1.85;;;17.10;57.90;;;;;;5050632;28;20171;-69
2024/02/06 05:38:43;;;;;;;3.42;1.90;;;17.10;57.90;;;;;;5051582;28;20180;-71
2024/02/06 05:41:12;;;;;;;2.85;2.03;;;17.10;57.90;;;;;;5051541;28;20171;-70
2024/02/06 05:43:38;;;;;;;3.08;2.08;;;17.10;57.90;;;;;;5050617;28;20226;-70
2024/02/06 05:46:04;;;;;;;3.17;1.90;;;17.10;57.90;;;;;;5055055;28;20211;-70
2024/02/06 05:48:30;;;;;;;4.82;2.20;;;17.10;57.90;;;;;;5055078;28;20225;-70
2024/02/06 05:50:55;;;;;;;3.20;2.05;;;17.10;57.90;;;;;;5054377;28;20537;-71
2024/02/06 05:53:21;;;;;;;3.78;2.25;;;17.00;57.90;;;;;;5054798;28;20207;-69
2024/02/06 05:55:46;;;;;;;5.55;2.30;;;17.00;57.90;;;;;;5055081;28;20173;-71
2024/02/06 05:58:12;;;;;;;5.80;2.17;;;17.00;57.90;;;;;;5054178;28;20323;-72
2024/02/06 06:00:37;;;;;;;2.53;2.00;;;17.00;57.90;;;;;;5054571;28;20668;-71
2024/02/06 06:03:04;;;;;;;3.83;2.10;;;17.00;58.00;;;;;;5055153;28;20220;-72
2024/02/06 06:05:30;;;;;;;4.47;1.80;;;17.00;58.00;;;;;;5054002;28;20179;-71
2024/02/06 06:07:55;;;;;;;3.35;2.25;;;17.10;58.00;;;;;;5054807;28;20273;-71
2024/02/06 06:10:21;;;;;;;1.85;1.60;;;17.00;58.00;;;;;;5054410;28;20178;-72
2024/02/06 06:12:46;;;;;;;2.03;1.77;;;17.00;58.00;;;;;;5053939;28;20207;-72
2024/02/06 06:15:12;;;;;;;2.67;2.00;;;17.00;58.00;;;;;;5054619;28;20214;-71
2024/02/06 06:17:38;;;;;;;2.88;1.88;;;17.00;58.00;;;;;;5054530;28;20207;-71
2024/02/06 06:20:05;;;;;;;3.08;2.13;;;17.00;58.00;;;;;;5054027;28;20171;-72
2024/02/06 06:22:30;;;;;;;3.72;2.55;;;17.00;58.00;;;;;;5054160;28;20545;-73
2024/02/06 06:24:56;;;;;;;3.47;1.77;;;17.00;58.00;;;;;;5054551;28;20178;-73
2024/02/06 06:27:21;;;;;;;3.63;2.05;;;17.00;58.10;;;;;;5053563;28;20206;-71
2024/02/06 06:29:47;;;;;;;3.70;2.22;;;17.00;58.00;;;;;;5054354;28;20199;-71
2024/02/06 06:32:12;;;;;;;4.40;2.10;;;16.90;58.00;;;;;;5053776;28;20202;-70
2024/02/06 06:34:40;;;;;;;2.72;2.03;;;16.90;58.10;;;;;;5053932;28;20183;-71
2024/02/06 06:37:06;;;;;;;2.50;1.80;;;16.90;58.10;;;;;;5054208;28;20521;-72
2024/02/06 06:39:32;;;;;;;3.58;2.10;;;16.90;58.10;;;;;;5053307;28;20182;-71
2024/02/06 06:41:58;;;;;;;3.45;1.90;;;17.00;58.10;;;;;;5054111;28;20615;-70
2024/02/06 06:44:23;;;;;;;2.35;2.15;;;16.90;58.10;;;;;;5053728;28;20194;-70
2024/02/06 06:46:50;;;;;;;3.17;2.08;;;16.90;58.10;;;;;;5053615;28;20183;-70
2024/02/06 06:49:15;;;;;;;2.38;1.98;;;16.90;58.10;;;;;;5053957;28;20661;-68
2024/02/06 06:51:42;;;;;;;3.70;2.30;;;16.90;58.10;;;;;;5053942;28;20179;-70
2024/02/06 06:54:08;;;;;;;4.22;2.13;;;16.90;58.10;;;;;;5053310;28;20211;-71
2024/02/06 06:56:33;;;;;;;3.97;2.15;;;16.90;58.20;;;;;;5053233;28;20170;-71
2024/02/06 06:58:59;;;;;;;2.85;2.10;;;16.90;58.10;;;;;;5053800;28;20190;-73
2024/02/06 07:01:25;;;;;;;2.65;2.25;;;16.90;58.10;;;;;;5053010;28;20171;-71
2024/02/06 07:03:53;;;;;;;4.03;1.95;;;16.90;58.10;;;;;;5053746;28;20262;-71
2024/02/06 07:06:19;;;;;;;3.28;2.38;;;16.90;58.30;;;;;;5053371;28;20660;-72
2024/02/06 07:08:44;;;;;;;2.55;1.88;;;16.90;58.20;;;;;;5052901;28;20183;-71
2024/02/06 07:11:10;;;;;;;3.58;1.92;;;16.90;58.20;;;;;;5053555;28;20175;-71
2024/02/06 07:13:36;;;;;;;3.42;2.10;;;16.90;58.20;;;;;;5053056;28;20217;-70
2024/02/06 07:16:01;;;;;;;3.38;2.45;;;16.90;58.30;;;;;;5052976;28;20325;-71
2024/02/06 07:18:27;;;;;;;2.53;1.92;;;16.90;58.20;;;;;;5053311;28;20219;-71
2024/02/06 07:20:52;;;;;;;2.42;2.05;;;16.90;58.30;;;;;;5053437;28;20175;-72
2024/02/06 07:23:18;;;;;;;2.70;1.98;;;16.90;58.30;;;;;;5052311;28;20549;-71
2024/02/06 07:25:44;;;;;;;3.88;2.13;;;16.90;58.20;;;;;;5053320;28;20187;-70
2024/02/06 07:28:10;;;;;;;4.00;2.05;;;16.90;58.30;;;;;;5053197;28;20183;-71
2024/02/06 07:30:35;;;;;;;2.83;2.00;;;16.80;58.30;;;;;;5052517;28;20171;-70
2024/02/06 07:33:01;;;;;;;2.28;2.05;;;16.80;58.20;;;;;;5053035;28;20213;-70
2024/02/06 07:35:27;;;;;;;3.22;2.13;;;16.90;58.30;;;;;;5052180;28;20183;-70
2024/02/06 07:37:52;;;;;;;3.38;2.08;;;16.90;58.30;;;;;;5053047;28;20529;-70
2024/02/06 07:40:18;;;;;;;3.15;2.63;;;16.80;58.20;;;;;;5052691;28;20167;-71
2024/02/06 07:42:49;;;;;;;4.93;2.30;;;16.80;58.20;;;;;;5052219;28;20856;-70
2024/02/06 07:45:15;;;;;;;2.72;2.28;;;16.80;58.20;;;;;;5052599;28;20175;-69
2024/02/06 07:47:41;;;;;;;4.45;2.03;;;16.80;58.30;;;;;;5052781;28;20248;-69
2024/02/06 07:50:06;;;;;;;5.45;2.33;;;16.80;58.80;;;;;;5052298;28;20207;-70
2024/02/06 07:52:32;;;;;;;7.22;2.50;;;16.80;58.30;;;;;;5052375;28;20707;-73
2024/02/06 07:54:57;;;;;;;4.30;2.38;;;16.80;58.40;;;;;;5052718;28;20194;-74
2024/02/06 07:57:23;;;;;;;4.30;2.45;;;16.80;58.30;;;;;;5051588;28;20223;-74
2024/02/06 07:59:49;;;;;;;6.30;2.50;;;16.80;58.30;;;;;;5052474;28;20664;-74
2024/02/06 08:02:14;;;;;;;6.47;2.90;;;16.80;58.40;;;;;;5052542;28;20213;-74
2024/02/06 08:04:41;;;;;;;6.75;2.88;;;16.80;58.40;;;;;;5051362;28;20187;-70
2024/02/06 08:07:07;;;;;;;5.13;2.38;;;16.80;58.40;;;;;;5051670;28;20236;-72
2024/02/06 08:09:32;;;;;;;4.35;1.95;;;16.80;58.40;;;;;;5052109;28;20578;-72
2024/02/06 08:11:58;;;;;;;4.45;2.40;;;16.80;58.50;;;;;;5051572;28;20176;-74
2024/02/06 08:14:23;;;;;;;5.82;2.35;;;16.80;58.50;;;;;;5051902;28;20576;-73
2024/02/06 08:16:49;;;;;;;5.93;2.25;;;16.80;58.50;;;;;;5052247;28;20175;-74
2024/02/06 08:19:14;;;;;;;3.78;2.33;;;16.80;58.50;;;;;;5051642;28;20183;-74
2024/02/06 08:21:40;;;;;;;6.18;2.47;;;16.80;58.50;;;;;;5052135;28;20171;-74
2024/02/06 08:24:06;;;;;;;6.32;2.35;;;16.80;58.60;;;;;;5052309;28;20175;-74
2024/02/06 08:26:31;;;;;;;4.18;2.22;;;16.80;58.60;;;;;;5051197;28;20259;-73
2024/02/06 08:28:57;;;;;;;5.75;2.67;;;16.80;58.50;;;;;;5052443;28;20186;-75
2024/02/06 08:31:22;;;;;;;4.47;2.67;;;16.70;58.50;;;;;;5052046;28;20171;-73
2024/02/06 08:33:51;;;;;;;5.68;2.17;;;16.70;58.50;;;;;;5051495;28;20222;-73
2024/02/06 08:36:17;;;;;;;5.70;2.25;;;16.70;58.50;;;;;;5052010;28;20182;-73
2024/02/06 08:38:42;;;;;;;4.25;2.45;;;16.70;58.50;;;;;;5051349;28;20175;-74
2024/02/06 08:41:08;;;;;;;4.47;2.55;;;16.70;58.50;;;;;;5052036;28;20194;-74
2024/02/06 08:43:34;;;;;;;4.47;2.65;;;16.70;58.50;;;;;;5051694;28;20661;-73
2024/02/06 08:46:00;;;;;;;3.53;2.10;;;16.70;58.50;;;;;;5051476;28;20751;-73
2024/02/06 08:48:28;;;;;;;5.22;2.50;;;16.70;58.50;;;;;;5051847;28;20221;-73
2024/02/06 08:50:54;;;;;;;5.68;2.53;;;16.70;58.50;;;;;;5051944;28;20183;-74
2024/02/06 08:53:20;;;;;;;3.60;2.35;;;16.70;58.50;;;;;;5050969;28;20225;-74
2024/02/06 08:55:45;;;;;;;3.80;2.53;;;16.70;58.50;;;;;;5051849;28;20163;-74
2024/02/06 08:58:11;;;;;;;4.40;2.42;;;16.70;58.50;;;;;;5051759;28;20226;-73
2024/02/06 09:00:36;;;;;;;3.15;2.30;;;16.70;58.50;;;;;;5050885;28;20205;-73
2024/02/06 09:03:02;;;;;;;5.00;2.45;;;16.60;58.50;;;;;;5051819;28;20179;-74
2024/02/06 09:05:28;;;;;;;5.82;2.67;;;16.70;58.50;;;;;;5051347;28;20638;-73
2024/02/06 09:07:54;;;;;;;4.00;2.33;;;16.70;58.50;;;;;;5051069;28;20191;-74
2024/02/06 09:10:20;;;;;;;6.20;2.40;;;16.70;58.50;;;;;;5051404;28;20538;-74
2024/02/06 09:12:45;;;;;;;3.95;2.50;;;16.70;58.50;;;;;;5051569;28;20198;-75
2024/02/06 09:15:11;;;;;;;5.60;2.17;;;16.70;58.50;;;;;;5050962;28;20185;-74
2024/02/06 09:17:37;;;;;;;4.93;2.35;;;16.70;58.50;;;;;;5051295;28;20270;-73
2024/02/06 09:20:02;;;;;;;3.08;2.40;;;16.70;58.50;;;;;;5054196;28;20217;-74
2024/02/06 09:22:28;;;;;;;4.57;2.40;;;16.70;58.50;;;;;;5054656;28;20179;-74
2024/02/06 09:24:53;;;;;;;4.10;2.67;;;16.70;58.60;;;;;;5055478;28;20186;-74
2024/02/06 09:27:19;;;;;;;6.20;2.47;;;16.70;58.50;;;;;;5055485;28;20182;-74
2024/02/06 09:29:44;;;;;;;5.65;2.38;;;16.70;58.50;;;;;;5054983;28;20175;-73
2024/02/06 09:32:10;;;;;;;7.30;2.55;;;16.60;58.50;;;;;;5055588;28;20222;-73
2024/02/06 09:34:35;;;;;;;4.47;2.38;;;16.70;58.60;;;;;;5055092;28;20221;-73
2024/02/06 09:37:01;;;;;;;7.10;2.88;;;16.60;58.50;;;;;;5054755;28;20171;-74
2024/02/06 09:39:26;;;;;;;2.92;2.22;;;16.70;58.60;;;;;;5055025;28;20213;-74
2024/02/06 09:41:52;;;;;;;6.15;2.38;;;16.70;58.60;;;;;;5055472;28;20198;-74
2024/02/06 09:44:18;;;;;;;6.18;2.75;;;16.60;58.50;;;;;;5053047;28;20252;-74
2024/02/06 09:46:49;;;;;;;3.72;2.35;;;16.70;58.60;;;;;;5054002;28;20183;-73
2024/02/06 09:49:17;;;;;;;5.45;2.45;;;16.60;58.50;;;;;;5053353;28;20215;-73
2024/02/06 09:51:42;;;;;;;3.63;2.60;;;16.70;58.60;;;;;;5055003;28;20182;-73
2024/02/06 09:54:08;;;;;;;5.50;2.40;;;16.70;58.60;;;;;;5054005;28;20214;-74
2024/02/06 09:56:33;;;;;;;4.10;2.38;;;16.60;58.50;;;;;;5052866;28;20943;-73
2024/02/06 09:59:01;;;;;;;4.30;2.22;;;16.60;58.50;;;;;;5054061;28;20266;-74
2024/02/06 10:01:26;;;;;;;3.80;2.30;;;16.60;58.60;;;;;;5053353;28;20543;-73
2024/02/06 10:03:52;;;;;;;2.97;2.00;;;16.70;58.60;;;;;;5054115;28;20183;-74
2024/02/06 10:06:22;;;;;;;4.13;2.40;;;16.70;58.60;;;;;;5053253;28;20201;-74
2024/02/06 10:08:48;;;;;;;5.78;2.72;;;16.70;58.70;;;;;;5055014;28;20175;-74
2024/02/06 10:11:15;;;;;;;3.67;2.10;;;16.70;58.70;;;;;;5054324;28;20205;-74
2024/02/06 10:13:40;;;;;;;6.20;2.70;;;16.60;58.60;;;;;;5053237;28;21018;-74
2024/02/06 10:16:06;;;;;;;4.80;2.63;;;16.60;58.60;;;;;;5054922;28;20183;-73
2024/02/06 10:18:32;;;;;;;5.10;2.42;;;16.60;58.60;;;;;;5052578;28;20175;-73
2024/02/06 10:20:58;;;;;;;4.80;2.22;;;16.70;58.60;;;;;;5054614;28;20676;-73
2024/02/06 10:23:24;;;;;;;6.22;2.63;;;16.60;58.60;;;;;;5053379;28;20262;-74
2024/02/06 10:25:50;;;;;;;4.30;2.15;;;16.60;58.60;;;;;;5054060;28;20666;-73
2024/02/06 10:28:25;;;;;;;4.38;2.13;;;16.60;58.60;;;;;;5054460;28;20175;-73
2024/02/06 10:30:51;;;;;;;6.38;2.40;;;16.60;58.60;;;;;;5053939;28;20182;-73
2024/02/06 10:33:16;;;;;;;6.85;2.80;;;16.60;58.60;;;;;;5053354;28;20214;-73
2024/02/06 10:35:42;;;;;;;6.53;2.45;;;16.70;58.60;;;;;;5054174;28;20175;-74
2024/02/06 10:38:15;;;;;;;3.95;2.25;;;16.70;58.60;;;;;;5054460;28;20205;-74
2024/02/06 10:40:42;;;;;;;3.55;2.22;;;16.60;58.60;;;;;;5054102;28;20532;-73
2024/02/06 10:43:08;;;;;;;5.00;2.28;;;16.70;58.70;;;;;;5054230;28;20212;-74
2024/02/06 10:45:34;;;;;;;6.65;2.30;;;16.60;58.60;;;;;;5053070;28;20182;-73
2024/02/06 10:48:00;;;;;;;3.42;2.05;;;16.70;58.60;;;;;;5054113;28;20191;-74
2024/02/06 10:50:29;;;;;;;5.10;2.55;;;16.70;58.60;;;;;;5053589;28;20175;-73
2024/02/06 10:52:55;;;;;;;4.90;2.25;;;16.70;58.60;;;;;;5052909;28;20920;-73
2024/02/06 10:55:21;;;;;;;4.70;2.42;;;16.70;58.00;;;;;;5053578;28;20325;-71
2024/02/06 10:57:46;;;;;;;5.20;2.47;;;16.70;58.70;;;;;;5053850;28;20222;-70
2024/02/06 11:00:17;;;;;;;4.45;2.50;;;16.70;59.20;;;;;;5053305;28;20262;-70
2024/02/06 11:02:43;;;;;;;5.80;2.42;;;16.70;58.50;;;;;;5053869;28;20186;-70
2024/02/06 11:05:21;;;;;;;4.20;1.92;;;16.70;58.50;;;;;;5052639;28;20183;-71
2024/02/06 11:07:49;;;;;;;3.65;2.55;;;16.80;58.60;;;;;;5054467;28;20182;-70
2024/02/06 11:10:17;;;;;;;5.40;2.40;;;16.80;59.30;;;;;;5047111;28;20179;-71
2024/02/06 11:12:42;;;;;;;4.00;2.25;;;16.80;58.60;;;;;;5058682;28;20210;-70
2024/02/06 11:15:08;;;;;;;4.57;2.17;;;16.80;58.60;;;;;;5051561;28;20179;-70
2024/02/06 11:17:34;;;;;;;5.10;2.40;;;16.80;58.60;;;;;;5069134;28;20170;-70
2024/02/06 11:20:08;;;;;;;5.53;2.35;;;16.80;58.60;;;;;;5052411;28;20182;-71
2024/02/06 11:22:39;;;;;;;4.78;2.30;;;16.70;58.60;;;;;;5052418;28;20171;-70
2024/02/06 11:25:05;;;;;;;5.22;2.38;;;16.80;58.60;;;;;;5062529;28;20174;-68
2024/02/06 11:27:31;;;;;;;4.93;2.22;;;16.70;58.50;;;;;;5071281;28;20257;-70
2024/02/06 11:29:56;;;;;;;4.28;2.10;;;16.70;58.50;;;;;;5073143;28;20608;-69
2024/02/06 11:32:22;;;;;;;5.88;2.30;;;16.80;58.60;;;;;;5054960;28;20692;-71
2024/02/06 11:34:52;;;;;;;3.97;2.30;;;16.70;58.50;;;;;;5071101;28;20927;-72
2024/02/06 11:37:27;;;;;;;4.95;2.38;;;16.80;58.50;;;;;;5072638;28;20178;-71
2024/02/06 11:40:10;;;;;;;5.90;2.55;;;16.80;58.60;;;;;;5072929;28;20178;-70
2024/02/06 11:42:36;;;;;;;6.38;2.20;;;16.70;59.20;;;;;;5057123;28;20648;-70
2024/02/06 11:45:12;;;;;;;5.18;2.00;;;16.70;58.50;;;;;;5052993;28;20221;-71
2024/02/06 11:47:38;;;;;;;6.35;2.67;;;16.80;58.50;;;;;;5052728;28;20255;-71
2024/02/06 11:50:12;;;;;;;7.03;2.60;;;16.70;58.50;;;;;;5052088;28;20181;-71
2024/02/06 11:52:40;;;;;;;7.20;2.55;;;16.70;58.50;;;;;;5052282;28;20553;-71
2024/02/06 11:55:06;;;;;;;3.60;2.00;;;16.80;58.50;;;;;;5035321;28;20179;-70
2024/02/06 11:57:32;;;;;;;6.30;2.38;;;16.70;58.50;;;;;;5051602;28;20219;-71
2024/02/06 12:00:01;;;;;;;3.83;2.03;;;16.70;58.50;;;;;;5052900;28;20209;-70
2024/02/06 12:02:26;;;;;;;3.55;1.95;;;16.80;58.50;;;;;;5052370;28;20195;-70
2024/02/06 12:05:01;;;;;;;5.95;2.35;;;16.70;58.50;;;;;;5051769;28;20214;-71
2024/02/06 12:07:26;;;;;;;4.38;2.58;;;16.70;58.40;;;;;;5052287;28;20174;-70
2024/02/06 12:09:52;;;;;;;3.60;1.80;;;16.70;58.50;;;;;;5051675;28;20174;-71
2024/02/06 12:12:17;;;;;;;4.32;2.15;;;16.70;58.50;;;;;;5052334;28;20182;-72
2024/02/06 12:14:44;;;;;;;4.50;2.15;;;16.70;58.40;;;;;;5051244;28;20242;-70
2024/02/06 12:17:09;;;;;;;5.25;2.33;;;16.70;58.50;;;;;;5051092;28;20262;-70
2024/02/06 12:19:35;;;;;;;4.85;1.88;;;16.70;58.40;;;;;;5070714;28;20685;-69
2024/02/06 12:22:04;;;;;;;6.70;2.40;;;16.70;58.40;;;;;;5070905;28;20706;-72
2024/02/06 12:24:30;;;;;;;6.32;2.42;;;16.70;58.70;;;;;;5071285;28;20618;-72
2024/02/06 12:27:08;;;;;;;5.47;2.47;;;16.70;58.50;;;;;;5072351;28;20712;-68
2024/02/06 12:29:38;;;;;;;6.32;2.25;;;16.70;58.50;;;;;;5071121;28;20182;-69
2024/02/06 12:32:04;;;;;;;6.65;2.30;;;16.70;58.40;;;;;;5071427;28;20281;-71
2024/02/06 12:34:31;;;;;;;7.38;2.25;;;16.70;58.50;;;;;;5071769;28;20221;-71
2024/02/06 12:36:58;;;;;;;6.88;2.45;;;16.80;58.60;;;;;;5070922;28;20177;-69
2024/02/06 12:39:23;;;;;;;3.10;1.90;;;16.70;58.60;;;;;;5071131;28;20552;-70
2024/02/06 12:41:59;;;;;;;5.38;2.00;;;16.70;58.50;;;;;;5072074;28;20178;-69